createdAt,value
2022-09-23T00:00:02.404Z,867.6
2022-09-23T00:01:46.102Z,866.1
2022-09-23T00:03:29.795Z,868.3
2022-09-23T00:05:13.494Z,869.9
2022-09-23T00:06:57.289Z,868.8
2022-09-23T00:08:40.903Z,869.6
2022-09-23T00:10:24.619Z,870.3
2022-09-23T00:12:08.307Z,869.3
2022-09-23T00:15:35.709Z,872.5
2022-09-23T00:17:19.430Z,868.1
2022-09-23T00:19:03.107Z,868.8
2022-09-23T00:20:46.812Z,869.7
2022-09-23T00:22:30.543Z,872.4
2022-09-23T00:24:14.223Z,872.3
2022-09-23T00:25:57.924Z,866.9
2022-09-23T00:27:41.619Z,865.5
2022-09-23T00:29:25.338Z,867.1
2022-09-23T00:31:09.041Z,865.4
2022-09-23T00:32:52.773Z,863.7
2022-09-23T00:34:36.434Z,865.8
2022-09-23T00:36:20.184Z,864.8
2022-09-23T00:38:03.835Z,868.6
2022-09-23T00:39:47.577Z,869.6
2022-09-23T00:41:31.330Z,870.3
2022-09-23T00:43:14.967Z,867.9
2022-09-23T00:44:58.649Z,866.4
2022-09-23T00:46:42.394Z,868.2
2022-09-23T00:48:26.055Z,868.6
2022-09-23T00:50:09.767Z,865.8
2022-09-23T00:51:53.477Z,862.5
2022-09-23T00:53:37.178Z,864
2022-09-23T00:55:20.862Z,862.7
2022-09-23T00:57:04.567Z,863.3
2022-09-23T00:58:48.306Z,871
2022-09-23T01:00:32.026Z,874.3
2022-09-23T01:02:15.667Z,874.6
2022-09-23T01:03:59.355Z,875.1
2022-09-23T01:05:43.065Z,873.1
2022-09-23T01:07:26.853Z,873.6
2022-09-23T01:09:10.476Z,873.3
2022-09-23T01:10:54.183Z,873
2022-09-23T01:12:37.870Z,873.1
2022-09-23T01:14:21.579Z,870.1
2022-09-23T01:16:05.341Z,871.2
2022-09-23T01:17:48.985Z,872.8
2022-09-23T01:19:32.764Z,876.4
2022-09-23T01:21:16.381Z,878.2
2022-09-23T01:23:00.099Z,881.8
2022-09-23T01:24:43.820Z,880
2022-09-23T01:26:27.536Z,876.7
2022-09-23T01:28:11.227Z,878
2022-09-23T01:29:54.958Z,878.7
2022-09-23T01:31:38.589Z,876.9
2022-09-23T01:33:22.409Z,875.2
2022-09-23T01:35:06.011Z,877.4
2022-09-23T01:36:49.689Z,880.3
2022-09-23T01:38:33.490Z,880.6
2022-09-23T01:40:17.092Z,879.7
2022-09-23T01:42:00.792Z,880.8
2022-09-23T01:43:44.537Z,881
2022-09-23T01:45:28.198Z,880.3
2022-09-23T01:47:11.897Z,879.3
2022-09-23T01:48:55.604Z,877.4
2022-09-23T01:50:39.304Z,877.3
2022-09-23T01:52:23.066Z,878.1
2022-09-23T01:54:06.712Z,878.9
2022-09-23T01:55:50.430Z,880.7
2022-09-23T01:57:34.144Z,881.1
2022-09-23T01:59:17.810Z,879.8
2022-09-23T02:01:01.507Z,878.2
2022-09-23T02:02:45.211Z,877.7
2022-09-23T02:04:28.908Z,877.2
2022-09-23T02:06:12.634Z,878.8
2022-09-23T02:07:56.312Z,877.2
2022-09-23T02:09:40.059Z,880
2022-09-23T02:11:23.728Z,885.6
2022-09-23T02:13:07.438Z,885
2022-09-23T02:14:51.140Z,884.4
2022-09-23T02:16:34.826Z,884.1
2022-09-23T02:18:18.531Z,883.3
2022-09-23T02:20:02.284Z,886.6
2022-09-23T02:21:45.934Z,884.8
2022-09-23T02:23:29.661Z,883.3
2022-09-23T02:25:13.357Z,883.4
2022-09-23T02:26:57.127Z,887.9
2022-09-23T02:28:40.748Z,887.6
2022-09-23T02:30:24.448Z,888.6
2022-09-23T02:32:08.154Z,891.2
2022-09-23T02:33:51.855Z,891.9
2022-09-23T02:35:35.551Z,889.6
2022-09-23T02:37:19.240Z,887.9
2022-09-23T02:39:02.949Z,886.1
2022-09-23T02:40:46.727Z,885
2022-09-23T02:42:30.346Z,887.7
2022-09-23T02:44:14.044Z,886.5
2022-09-23T02:45:57.754Z,891.6
2022-09-23T02:47:41.491Z,888.3
2022-09-23T02:49:25.162Z,888.3
2022-09-23T02:51:08.881Z,889.1
2022-09-23T02:52:52.582Z,888.2
2022-09-23T02:54:36.260Z,889.8
2022-09-23T02:56:19.983Z,893.6
2022-09-23T02:58:03.658Z,892.8
2022-09-23T03:01:31.072Z,892.7
2022-09-23T03:03:14.765Z,893.3
2022-09-23T03:04:58.508Z,892.7
2022-09-23T03:06:42.217Z,895.7
2022-09-23T03:08:25.874Z,895.4
2022-09-23T03:10:09.575Z,901.6
2022-09-23T03:11:53.280Z,900.6
2022-09-23T03:13:36.986Z,900.7
2022-09-23T03:15:20.675Z,901.7
2022-09-23T03:17:04.426Z,899.5
2022-09-23T03:18:48.087Z,901.6
2022-09-23T03:20:31.782Z,903.8
2022-09-23T03:22:15.488Z,903.3
2022-09-23T03:23:59.193Z,903.9
2022-09-23T03:25:42.941Z,905.4
2022-09-23T03:27:26.597Z,903.5
2022-09-23T03:29:10.298Z,902.9
2022-09-23T03:30:54.010Z,903.4
2022-09-23T03:32:37.716Z,906.6
2022-09-23T03:34:21.555Z,906.8
2022-09-23T03:36:05.101Z,906
2022-09-23T03:37:48.867Z,904.8
2022-09-23T03:39:32.501Z,904.6
2022-09-23T03:41:16.242Z,907.7
2022-09-23T03:42:59.913Z,911.4
2022-09-23T03:44:43.625Z,911.6
2022-09-23T03:46:27.307Z,915.7
2022-09-23T03:48:11.015Z,914.7
2022-09-23T03:49:54.709Z,918.8
2022-09-23T03:51:38.414Z,922.9
2022-09-23T03:53:22.120Z,922.8
2022-09-23T03:55:05.851Z,920.9
2022-09-23T03:56:49.527Z,921.7
2022-09-23T03:58:33.250Z,921.9
2022-09-23T04:00:16.923Z,922.1
2022-09-23T04:02:00.629Z,923.1
2022-09-23T04:03:44.321Z,920.8
2022-09-23T04:05:28.039Z,921
2022-09-23T04:07:11.742Z,922.3
2022-09-23T04:08:55.485Z,927
2022-09-23T04:10:39.131Z,926.6
2022-09-23T04:12:22.839Z,928.6
2022-09-23T04:14:06.533Z,928.9
2022-09-23T04:15:50.243Z,926.1
2022-09-23T04:17:33.936Z,924.3
2022-09-23T04:19:17.692Z,924.3
2022-09-23T04:21:01.347Z,929.4
2022-09-23T04:22:45.039Z,1208.7
2022-09-23T04:24:28.753Z,1413.6
2022-09-23T04:26:12.447Z,1290.3
2022-09-23T04:27:56.235Z,1225.4
2022-09-23T04:29:39.849Z,1181.2
2022-09-23T04:31:23.555Z,1166.7
2022-09-23T04:33:07.259Z,1170.2
2022-09-23T04:34:50.963Z,1180.7
2022-09-23T04:36:34.662Z,1185.4
2022-09-23T04:38:18.362Z,1185
2022-09-23T04:40:02.070Z,1177.8
2022-09-23T04:41:45.765Z,1177.5
2022-09-23T04:43:29.518Z,1174.7
2022-09-23T04:45:13.230Z,1175.9
2022-09-23T04:46:56.877Z,1231.8
2022-09-23T04:48:40.593Z,1231.9
2022-09-23T04:50:24.335Z,1215.2
2022-09-23T04:52:07.990Z,1199.2
2022-09-23T04:53:51.686Z,1201.2
2022-09-23T04:55:35.395Z,1201.7
2022-09-23T04:57:19.097Z,1200.3
2022-09-23T04:59:02.835Z,1197.4
2022-09-23T05:00:46.497Z,1189
2022-09-23T05:02:30.211Z,1185.6
2022-09-23T05:04:13.936Z,1181.2
2022-09-23T05:05:57.604Z,1179.9
2022-09-23T05:07:41.310Z,1173.6
2022-09-23T05:09:25.014Z,1177.2
2022-09-23T05:11:08.777Z,1179
2022-09-23T05:12:52.413Z,1177.6
2022-09-23T05:14:36.136Z,1174.3
2022-09-23T05:16:19.855Z,1173.9
2022-09-23T05:18:03.524Z,1172.5
2022-09-23T05:19:47.250Z,1171.1
2022-09-23T05:21:30.943Z,1170.5
2022-09-23T05:23:14.630Z,1169.2
2022-09-23T05:24:58.370Z,1165.8
2022-09-23T05:26:42.095Z,1168.4
2022-09-23T05:28:25.741Z,1166.5
2022-09-23T05:30:09.472Z,1166
2022-09-23T05:31:53.140Z,1167.9
2022-09-23T05:33:36.849Z,1170
2022-09-23T05:35:20.553Z,1172.1
2022-09-23T05:37:04.271Z,1173.7
2022-09-23T05:38:47.953Z,1173.7
2022-09-23T05:40:31.657Z,1175.3
2022-09-23T05:42:15.377Z,1175.6
2022-09-23T05:43:59.047Z,1174.1
2022-09-23T05:45:42.785Z,1165.6
2022-09-23T05:47:26.463Z,1162.8
2022-09-23T05:49:10.233Z,1191
2022-09-23T05:50:53.862Z,1206.7
2022-09-23T05:52:37.565Z,1183.7
2022-09-23T05:54:21.268Z,1169.4
2022-09-23T05:56:05.093Z,1176.8
2022-09-23T05:57:48.785Z,1185.6
2022-09-23T05:59:32.386Z,1193.3
2022-09-23T06:01:16.078Z,1198.4
2022-09-23T06:02:59.784Z,1196.9
2022-09-23T06:04:43.592Z,1195.4
2022-09-23T06:06:27.296Z,1187.3
2022-09-23T06:08:10.905Z,1180.1
2022-09-23T06:09:54.597Z,1179.3
2022-09-23T06:11:38.426Z,1176.7
2022-09-23T06:13:22.033Z,1175.6
2022-09-23T06:15:05.709Z,1176.5
2022-09-23T06:16:49.416Z,1172.2
2022-09-23T06:18:33.170Z,1167.5
2022-09-23T06:20:16.804Z,1161.8
2022-09-23T06:22:00.523Z,1159.6
2022-09-23T06:23:44.367Z,1157.2
2022-09-23T06:25:27.942Z,1155.3
2022-09-23T06:27:11.696Z,1153.4
2022-09-23T06:28:55.319Z,1150.9
2022-09-23T06:30:39.018Z,1147.2
2022-09-23T06:32:22.721Z,1141.1
2022-09-23T06:34:06.457Z,1139.3
2022-09-23T06:35:50.279Z,1141.8
2022-09-23T06:37:33.931Z,1140.2
2022-09-23T06:39:17.540Z,1141.2
2022-09-23T06:41:01.237Z,1141.6
2022-09-23T06:42:44.937Z,1140.7
2022-09-23T06:44:28.647Z,1137.3
2022-09-23T06:46:12.338Z,1138.7
2022-09-23T06:47:56.046Z,1137.4
2022-09-23T06:49:39.744Z,1136.8
2022-09-23T06:51:23.444Z,1135.5
2022-09-23T06:53:07.158Z,1134.6
2022-09-23T06:54:50.855Z,1135.1
2022-09-23T06:56:34.558Z,1133.2
2022-09-23T06:58:18.268Z,1132.5
2022-09-23T07:00:01.964Z,1131.9
2022-09-23T07:01:45.677Z,1131.8
2022-09-23T07:03:29.367Z,1129.6
2022-09-23T07:05:13.076Z,1127.7
2022-09-23T07:06:56.775Z,1123.5
2022-09-23T07:08:40.469Z,1120.9
2022-09-23T07:10:24.179Z,1126.4
2022-09-23T07:12:07.881Z,1126.9
2022-09-23T07:13:51.577Z,1137.5
2022-09-23T07:15:35.287Z,1200.3
2022-09-23T07:17:18.986Z,1188.1
2022-09-23T07:19:02.692Z,1180.1
2022-09-23T07:20:46.385Z,1166.9
2022-09-23T07:22:30.095Z,1143.8
2022-09-23T07:24:13.796Z,1141.5
2022-09-23T07:25:57.536Z,1136.1
2022-09-23T07:27:41.197Z,1137.9
2022-09-23T07:29:24.902Z,1139
2022-09-23T07:31:08.606Z,1142.7
2022-09-23T07:32:52.308Z,1141.6
2022-09-23T07:34:36.012Z,1142.4
2022-09-23T07:36:19.719Z,1140.5
2022-09-23T07:38:03.409Z,1138.6
2022-09-23T07:39:47.121Z,1137.1
2022-09-23T07:41:30.825Z,1134.4
2022-09-23T07:43:14.520Z,1131.1
2022-09-23T07:44:58.225Z,1133.1
2022-09-23T07:46:41.923Z,1132.2
2022-09-23T07:48:25.629Z,1132.3
2022-09-23T07:50:09.335Z,1132.6
2022-09-23T07:51:53.031Z,1131.8
2022-09-23T07:53:36.733Z,1132.4
2022-09-23T07:55:20.435Z,1136
2022-09-23T07:57:04.136Z,1139
2022-09-23T07:58:47.842Z,1143.4
2022-09-23T08:00:31.548Z,1142.7
2022-09-23T08:02:15.242Z,1140.7
2022-09-23T08:03:58.958Z,1135.1
2022-09-23T08:05:42.659Z,1131.2
2022-09-23T08:07:26.363Z,1133.5
2022-09-23T08:09:10.055Z,1127.2
2022-09-23T08:10:53.778Z,1123.3
2022-09-23T08:12:37.463Z,1123
2022-09-23T08:14:21.173Z,1126.5
2022-09-23T08:16:04.869Z,1126.9
2022-09-23T08:17:48.585Z,1126.5
2022-09-23T08:19:32.276Z,1127.4
2022-09-23T08:21:15.967Z,1126.4
2022-09-23T08:22:59.678Z,1135.4
2022-09-23T08:24:43.376Z,1158.9
2022-09-23T08:26:27.072Z,1153.5
2022-09-23T08:28:10.785Z,1145.6
2022-09-23T08:29:54.479Z,1133.1
2022-09-23T08:31:38.182Z,1128.4
2022-09-23T08:33:21.885Z,1127.5
2022-09-23T08:35:05.590Z,1134.1
2022-09-23T08:36:49.287Z,1148.7
2022-09-23T08:38:33.004Z,1157.2
2022-09-23T08:40:16.692Z,1153.9
2022-09-23T08:42:00.430Z,1162.5
2022-09-23T08:43:44.094Z,1184.4
2022-09-23T08:45:27.789Z,1182.5
2022-09-23T08:47:11.497Z,1143.8
2022-09-23T08:48:55.199Z,1126.7
2022-09-23T08:50:38.906Z,1123.7
2022-09-23T08:52:22.607Z,1119.6
2022-09-23T08:54:06.304Z,1120.7
2022-09-23T08:55:50.009Z,1118.5
2022-09-23T08:57:33.716Z,1114.3
2022-09-23T08:59:17.414Z,1116.4
2022-09-23T09:01:01.119Z,1118.1
2022-09-23T09:02:44.875Z,1116.8
2022-09-23T09:04:28.517Z,1116.7
2022-09-23T09:06:12.220Z,1117.9
2022-09-23T09:07:55.925Z,1116.1
2022-09-23T09:09:39.626Z,1114
2022-09-23T09:11:23.331Z,1111.5
2022-09-23T09:13:07.029Z,1111.6
2022-09-23T09:14:50.737Z,1107.5
2022-09-23T09:16:34.446Z,1108.9
2022-09-23T09:18:18.145Z,1110.7
2022-09-23T09:20:01.841Z,1109.4
2022-09-23T09:21:45.581Z,1112.1
2022-09-23T09:23:29.237Z,1108.4
2022-09-23T09:25:12.949Z,1106.9
2022-09-23T09:26:56.647Z,1106.1
2022-09-23T09:28:40.547Z,1110.3
2022-09-23T09:30:24.055Z,1109.2
2022-09-23T09:32:07.755Z,1111.5
2022-09-23T09:33:51.463Z,1111
2022-09-23T09:35:35.205Z,1104.5
2022-09-23T09:37:18.870Z,1102.7
2022-09-23T09:39:02.657Z,1107.6
2022-09-23T09:42:29.974Z,1106.9
2022-09-23T09:44:13.674Z,1103.9
2022-09-23T09:45:57.377Z,1104.2
2022-09-23T09:47:41.078Z,1102.2
2022-09-23T09:49:24.783Z,1103.8
2022-09-23T09:51:08.496Z,1107.8
2022-09-23T09:52:52.128Z,1105.4
2022-09-23T09:54:35.837Z,1106.9
2022-09-23T09:56:19.552Z,1112.6
2022-09-23T09:58:03.235Z,1111.2
2022-09-23T09:59:46.937Z,1109.1
2022-09-23T10:01:30.637Z,1109.3
2022-09-23T10:03:14.353Z,1111.2
2022-09-23T10:04:58.043Z,1113.5
2022-09-23T10:06:41.745Z,1115.1
2022-09-23T10:08:25.450Z,1111.4
2022-09-23T10:10:09.157Z,1108.2
2022-09-23T10:11:52.862Z,1107.6
2022-09-23T10:13:36.550Z,1107
2022-09-23T10:15:20.253Z,1110.1
2022-09-23T10:17:03.959Z,1109.9
2022-09-23T10:18:47.651Z,1107.6
2022-09-23T10:20:31.502Z,1106.9
2022-09-23T10:22:15.064Z,1109.3
2022-09-23T10:23:58.774Z,1110.1
2022-09-23T10:25:42.499Z,1106.1
2022-09-23T10:27:26.172Z,1101.7
2022-09-23T10:29:09.864Z,1101.3
2022-09-23T10:30:53.572Z,1103.1
2022-09-23T10:32:37.285Z,1104.1
2022-09-23T10:34:20.976Z,1105.4
2022-09-23T10:36:04.686Z,1105.8
2022-09-23T10:37:48.380Z,1108.3
2022-09-23T10:39:32.089Z,1108
2022-09-23T10:41:15.798Z,1108.5
2022-09-23T10:42:59.493Z,1108.2
2022-09-23T10:44:43.199Z,1104
2022-09-23T10:46:26.918Z,1101.3
2022-09-23T10:48:10.611Z,1097.2
2022-09-23T10:49:54.313Z,1098.1
2022-09-23T10:51:38.008Z,1096.7
2022-09-23T10:53:21.706Z,1096
2022-09-23T10:55:05.420Z,1099
2022-09-23T10:56:49.111Z,1103.6
2022-09-23T10:58:32.835Z,1102.8
2022-09-23T11:00:16.522Z,1098.9
2022-09-23T11:02:00.222Z,1096.9
2022-09-23T11:03:43.931Z,1096.8
2022-09-23T11:05:27.631Z,1096.4
2022-09-23T11:07:11.331Z,1094.5
2022-09-23T11:08:55.041Z,1095.8
2022-09-23T11:10:38.735Z,1099.2
2022-09-23T11:12:22.442Z,1103.3
2022-09-23T11:14:06.145Z,1102.9
2022-09-23T11:15:49.844Z,1098.8
2022-09-23T11:17:33.555Z,1095.2
2022-09-23T11:19:17.252Z,1096
2022-09-23T11:21:00.960Z,1096
2022-09-23T11:22:44.670Z,1097.1
2022-09-23T11:24:28.360Z,1095.3
2022-09-23T11:26:12.067Z,1100
2022-09-23T11:27:55.771Z,1103.5
2022-09-23T11:29:39.465Z,1097.5
2022-09-23T11:31:23.173Z,1094.7
2022-09-23T11:33:06.877Z,1095.8
2022-09-23T11:34:50.580Z,1099.3
2022-09-23T11:36:34.292Z,1103.1
2022-09-23T11:38:17.979Z,1098.9
2022-09-23T11:40:01.700Z,1097.3
2022-09-23T11:41:45.392Z,1099.3
2022-09-23T11:43:29.089Z,1090.4
2022-09-23T11:45:12.791Z,1083.9
2022-09-23T11:46:56.499Z,1084.3
2022-09-23T11:48:40.204Z,1086.6
2022-09-23T11:50:23.908Z,1087.9
2022-09-23T11:52:07.614Z,1084.9
2022-09-23T11:53:51.305Z,1078.8
2022-09-23T11:55:35.012Z,1072.9
2022-09-23T11:57:18.706Z,1063
2022-09-23T11:59:02.462Z,1057.9
2022-09-23T12:00:46.119Z,1058
2022-09-23T12:02:29.815Z,1058.5
2022-09-23T12:04:13.635Z,1061
2022-09-23T12:05:57.224Z,1067.3
2022-09-23T12:07:40.931Z,1070.9
2022-09-23T12:09:24.659Z,1075.9
2022-09-23T12:11:08.343Z,1081.3
2022-09-23T12:12:52.041Z,1097.6
2022-09-23T12:14:35.844Z,1107.7
2022-09-23T12:16:19.444Z,1113.1
2022-09-23T12:18:03.199Z,1116.2
2022-09-23T12:19:46.945Z,1121.2
2022-09-23T12:21:30.547Z,1125
2022-09-23T12:23:14.344Z,1131.4
2022-09-23T12:24:57.949Z,1137.5
2022-09-23T12:26:41.770Z,1139.1
2022-09-23T12:28:25.520Z,1151.1
2022-09-23T12:30:09.166Z,1159.6
2022-09-23T12:31:52.916Z,1157.9
2022-09-23T12:33:36.626Z,1157.2
2022-09-23T12:35:20.167Z,1159.6
2022-09-23T12:37:04.020Z,1158.1
2022-09-23T12:38:47.727Z,1158.5
2022-09-23T12:40:31.416Z,1160.9
2022-09-23T12:42:15.106Z,1174.2
2022-09-23T12:43:58.828Z,1171.1
2022-09-23T12:45:42.533Z,1168.2
2022-09-23T12:47:26.252Z,1165.5
2022-09-23T12:49:09.788Z,1159.5
2022-09-23T12:50:53.491Z,1165.5
2022-09-23T12:52:37.195Z,1164.2
2022-09-23T12:54:21.051Z,1166.3
2022-09-23T12:56:04.601Z,1165.4
2022-09-23T12:57:48.465Z,1165.8
2022-09-23T12:59:32.179Z,1166.5
2022-09-23T13:01:15.846Z,1171
2022-09-23T13:02:59.524Z,1167
2022-09-23T13:04:43.260Z,1153.8
2022-09-23T13:06:26.958Z,1110.7
2022-09-23T13:08:10.662Z,1090.2
2022-09-23T13:09:54.342Z,1086.1
2022-09-23T13:11:38.071Z,1083.4
2022-09-23T13:13:21.765Z,1081.9
2022-09-23T13:15:05.455Z,1084.9
2022-09-23T13:16:49.174Z,1086.8
2022-09-23T13:18:32.886Z,1092
2022-09-23T13:20:16.554Z,1097.9
2022-09-23T13:22:00.225Z,1099
2022-09-23T13:23:43.968Z,1097.6
2022-09-23T13:25:27.682Z,1100.9
2022-09-23T13:27:11.379Z,1098.6
2022-09-23T13:28:55.095Z,1096.9
2022-09-23T13:30:38.746Z,1096.6
2022-09-23T13:32:22.486Z,1101.7
2022-09-23T13:34:06.194Z,1106.4
2022-09-23T13:35:49.908Z,1110.5
2022-09-23T13:37:33.609Z,1110
2022-09-23T13:39:17.312Z,1110.4
2022-09-23T13:41:00.987Z,1106.8
2022-09-23T13:42:44.717Z,1104.4
2022-09-23T13:44:28.391Z,1106.4
2022-09-23T13:46:12.131Z,1109.9
2022-09-23T13:47:55.760Z,1109.9
2022-09-23T13:49:39.499Z,1107.4
2022-09-23T13:51:23.218Z,1104.9
2022-09-23T13:53:06.921Z,1104.5
2022-09-23T13:54:50.607Z,1104.3
2022-09-23T13:56:34.322Z,1102.9
2022-09-23T13:58:18.048Z,1099.7
2022-09-23T14:00:01.751Z,1096.3
2022-09-23T14:01:45.287Z,1094.5
2022-09-23T14:03:29.139Z,1091.5
2022-09-23T14:05:12.829Z,1088.5
2022-09-23T14:06:56.546Z,1084.2
2022-09-23T14:08:40.233Z,1083.6
2022-09-23T14:10:23.954Z,1079.2
2022-09-23T14:12:07.695Z,1078.9
2022-09-23T14:13:51.341Z,1078.2
2022-09-23T14:15:35.096Z,1073.7
2022-09-23T14:17:18.763Z,1069.7
2022-09-23T14:19:02.458Z,1068.5
2022-09-23T14:20:46.029Z,1066.8
2022-09-23T14:22:29.876Z,1065
2022-09-23T14:24:13.421Z,1063.8
2022-09-23T14:25:57.285Z,1059.3
2022-09-23T14:27:40.987Z,1056
2022-09-23T14:29:24.690Z,1054.1
2022-09-23T14:31:08.232Z,1052.8
2022-09-23T14:32:52.082Z,1049.5
2022-09-23T14:34:35.827Z,1039.4
2022-09-23T14:36:19.510Z,1034
2022-09-23T14:38:03.191Z,1031.2
2022-09-23T14:39:46.904Z,1030.2
2022-09-23T14:41:30.585Z,1032.5
2022-09-23T14:43:14.288Z,1030.8
2022-09-23T14:44:57.980Z,1046.7
2022-09-23T14:46:41.697Z,1047.1
2022-09-23T14:48:25.284Z,1044.3
2022-09-23T14:50:08.984Z,1044
2022-09-23T14:51:52.815Z,1045
2022-09-23T14:53:36.397Z,1044.9
2022-09-23T14:55:20.229Z,1044.1
2022-09-23T14:57:03.895Z,1046.5
2022-09-23T14:58:47.611Z,1049.7
2022-09-23T15:02:15.033Z,1061.4
2022-09-23T15:03:58.758Z,1066.9
2022-09-23T15:05:42.425Z,1068.1
2022-09-23T15:07:26.137Z,1067.6
2022-09-23T15:09:09.842Z,1067.6
2022-09-23T15:10:53.552Z,1066.6
2022-09-23T15:14:20.796Z,1066.9
2022-09-23T15:16:04.635Z,1069.7
2022-09-23T15:17:48.346Z,1067
2022-09-23T15:19:32.045Z,1061.5
2022-09-23T15:21:15.741Z,1058.1
2022-09-23T15:22:59.441Z,1054.5
2022-09-23T15:24:43.212Z,1053.3
2022-09-23T15:26:26.822Z,1057.3
2022-09-23T15:28:10.560Z,1058.9
2022-09-23T15:29:54.223Z,1059.4
2022-09-23T15:31:37.826Z,1060
2022-09-23T15:33:21.637Z,1056.4
2022-09-23T15:35:05.375Z,1052.3
2022-09-23T15:36:49.070Z,1051.8
2022-09-23T15:38:32.741Z,1051.1
2022-09-23T15:40:16.325Z,1050.7
2022-09-23T15:42:00.193Z,1047.7
2022-09-23T15:43:43.871Z,1046.2
2022-09-23T15:45:27.435Z,1048
2022-09-23T15:47:11.334Z,1046
2022-09-23T15:48:54.957Z,1045.3
2022-09-23T15:50:38.551Z,1048.7
2022-09-23T15:52:22.374Z,1059.2
2022-09-23T15:54:06.089Z,1093
2022-09-23T15:55:49.721Z,1114.8
2022-09-23T15:57:33.409Z,1106.6
2022-09-23T15:59:17.151Z,1097.8
2022-09-23T16:01:00.774Z,1097.4
2022-09-23T16:02:44.489Z,1098.7
2022-09-23T16:04:28.147Z,1098.2
2022-09-23T16:06:11.861Z,1095
2022-09-23T16:07:55.572Z,1094.1
2022-09-23T16:09:39.252Z,1093.9
2022-09-23T16:11:22.991Z,1092.1
2022-09-23T16:13:06.698Z,1094
2022-09-23T16:14:50.359Z,1091.7
2022-09-23T16:16:34.101Z,1092.6
2022-09-23T16:18:17.821Z,1090
2022-09-23T16:20:01.474Z,1085.2
2022-09-23T16:21:45.169Z,1090.6
2022-09-23T16:23:28.876Z,1129.1
2022-09-23T16:25:12.583Z,1148.7
2022-09-23T16:26:56.285Z,1154.5
2022-09-23T16:28:40.013Z,1155.4
2022-09-23T16:30:23.771Z,1153.3
2022-09-23T16:32:07.418Z,1150.6
2022-09-23T16:33:51.132Z,1148.1
2022-09-23T16:35:34.794Z,1146.2
2022-09-23T16:37:18.625Z,1145.8
2022-09-23T16:39:02.197Z,1146.1
2022-09-23T16:40:45.894Z,1150.5
2022-09-23T16:42:29.736Z,1153.2
2022-09-23T16:44:13.307Z,1146.5
2022-09-23T16:45:57.115Z,1140.1
2022-09-23T16:47:40.790Z,1138.1
2022-09-23T16:49:24.452Z,1135.5
2022-09-23T16:51:08.137Z,1133.9
2022-09-23T16:52:51.861Z,1136.6
2022-09-23T16:54:35.523Z,1137
2022-09-23T16:56:19.239Z,1132.2
2022-09-23T16:58:02.986Z,1134.8
2022-09-23T16:59:46.657Z,1135.1
2022-09-23T17:01:30.325Z,1134.5
2022-09-23T17:03:14.038Z,1135.2
2022-09-23T17:04:57.731Z,1136.6
2022-09-23T17:06:41.477Z,1141.7
2022-09-23T17:08:25.202Z,1141.3
2022-09-23T17:10:08.892Z,1138.6
2022-09-23T17:11:52.590Z,1135.8
2022-09-23T17:13:36.309Z,1132.8
2022-09-23T17:15:19.937Z,1130.1
2022-09-23T17:17:03.643Z,1127.9
2022-09-23T17:18:47.420Z,1124.4
2022-09-23T17:20:31.064Z,1123
2022-09-23T17:22:14.829Z,1126.4
2022-09-23T17:23:58.449Z,1132.1
2022-09-23T17:25:42.152Z,1130.3
2022-09-23T17:27:25.862Z,1127.6
2022-09-23T17:29:09.655Z,1124.4
2022-09-23T17:30:53.312Z,1128.6
2022-09-23T17:32:36.971Z,1131.3
2022-09-23T17:34:20.740Z,1132.1
2022-09-23T17:36:04.373Z,1128.2
2022-09-23T17:37:48.147Z,1126.5
2022-09-23T17:39:31.831Z,1122.4
2022-09-23T17:41:15.510Z,1117.5
2022-09-23T17:42:59.177Z,1122.2
2022-09-23T17:44:42.880Z,1123.6
2022-09-23T17:46:26.592Z,1122.1
2022-09-23T17:48:10.340Z,1121.7
2022-09-23T17:49:54.020Z,1120.2
2022-09-23T17:51:37.715Z,1121.5
2022-09-23T17:53:21.386Z,1119.6
2022-09-23T17:55:05.114Z,1116.7
2022-09-23T17:56:48.807Z,1120.6
2022-09-23T17:58:32.557Z,1122.5
2022-09-23T18:00:16.297Z,1119.9
2022-09-23T18:01:59.922Z,1120.7
2022-09-23T18:03:43.610Z,1116.5
2022-09-23T18:05:27.364Z,1114.6
2022-09-23T18:07:11.103Z,1114.1
2022-09-23T18:08:54.719Z,1111
2022-09-23T18:10:38.508Z,1111.1
2022-09-23T18:12:22.118Z,1107.9
2022-09-23T18:14:05.822Z,1105.5
2022-09-23T18:15:49.520Z,1104.5
2022-09-23T18:17:33.231Z,1102.9
2022-09-23T18:19:16.942Z,1103.4
2022-09-23T18:21:00.650Z,1101.5
2022-09-23T18:22:44.353Z,1096.8
2022-09-23T18:24:28.042Z,1095.2
2022-09-23T18:26:11.738Z,1097.1
2022-09-23T18:27:55.446Z,1098
2022-09-23T18:29:39.184Z,1097.5
2022-09-23T18:31:22.876Z,1098.4
2022-09-23T18:33:06.567Z,1098.6
2022-09-23T18:34:50.283Z,1100.5
2022-09-23T18:36:34.014Z,1097.7
2022-09-23T18:38:17.659Z,1092.1
2022-09-23T18:40:01.428Z,1091.2
2022-09-23T18:41:45.132Z,1094.5
2022-09-23T18:43:28.764Z,1091
2022-09-23T18:45:12.489Z,1084.5
2022-09-23T18:46:56.192Z,1084
2022-09-23T18:48:39.880Z,1085.4
2022-09-23T18:50:23.575Z,1084.4
2022-09-23T18:52:07.285Z,1084.2
2022-09-23T18:53:50.982Z,1083.6
2022-09-23T18:55:34.681Z,1083.2
2022-09-23T18:57:18.390Z,1083.1
2022-09-23T18:59:02.108Z,1083.8
2022-09-23T19:00:45.786Z,1083
2022-09-23T19:02:29.505Z,1081
2022-09-23T19:04:13.196Z,1081.8
2022-09-23T19:05:56.896Z,1081.2
2022-09-23T19:07:40.605Z,1082.1
2022-09-23T19:09:24.368Z,1076.1
2022-09-23T19:11:08.018Z,1074.6
2022-09-23T19:12:51.704Z,1076.4
2022-09-23T19:14:35.412Z,1078.7
2022-09-23T19:16:19.113Z,1078
2022-09-23T19:18:02.811Z,1076.7
2022-09-23T19:19:46.528Z,1076.2
2022-09-23T19:21:30.271Z,1077.3
2022-09-23T19:23:13.942Z,1075.9
2022-09-23T19:24:57.632Z,1074
2022-09-23T19:26:41.345Z,1074.4
2022-09-23T19:28:25.034Z,1072
2022-09-23T19:30:08.735Z,1073.3
2022-09-23T19:31:52.454Z,1070.6
2022-09-23T19:33:36.143Z,1064.7
2022-09-23T19:35:19.850Z,1063.3
2022-09-23T19:37:03.680Z,1057.9
2022-09-23T19:38:47.244Z,1057.4
2022-09-23T19:40:30.977Z,1055.9
2022-09-23T19:42:14.694Z,1056
2022-09-23T19:43:58.351Z,1050.5
2022-09-23T19:45:42.076Z,1047
2022-09-23T19:47:25.768Z,1049
2022-09-23T19:49:09.459Z,1048.4
2022-09-23T19:50:53.175Z,1047.4
2022-09-23T19:52:36.859Z,1043.2
2022-09-23T19:54:20.563Z,1047.1
2022-09-23T19:56:04.269Z,1048.5
2022-09-23T19:57:47.967Z,1043.8
2022-09-23T19:59:31.667Z,1041.6
2022-09-23T20:01:15.380Z,1038.7
2022-09-23T20:02:59.085Z,1035
2022-09-23T20:04:42.773Z,1034.7
2022-09-23T20:06:26.482Z,1036.8
2022-09-23T20:08:10.181Z,1036.3
2022-09-23T20:09:53.883Z,1035.2
2022-09-23T20:11:37.587Z,1035.5
2022-09-23T20:13:21.349Z,1035.4
2022-09-23T20:15:05.039Z,1035.1
2022-09-23T20:16:48.694Z,1033.2
2022-09-23T20:18:32.393Z,1032.1
2022-09-23T20:20:16.130Z,1030.1
2022-09-23T20:21:59.799Z,1027.6
2022-09-23T20:23:43.497Z,1024.8
2022-09-23T20:25:27.279Z,1020.7
2022-09-23T20:27:10.935Z,1023.2
2022-09-23T20:28:54.648Z,1025.7
2022-09-23T20:30:38.313Z,1024.5
2022-09-23T20:32:22.032Z,1024.7
2022-09-23T20:34:05.716Z,1021.1
2022-09-23T20:35:49.424Z,1017.1
2022-09-23T20:37:33.149Z,1012.8
2022-09-23T20:39:16.866Z,1008.4
2022-09-23T20:41:00.525Z,1007.3
2022-09-23T20:42:44.218Z,1005.8
2022-09-23T20:44:28.042Z,1005.4
2022-09-23T20:46:11.630Z,997.8
2022-09-23T20:47:55.401Z,995.2
2022-09-23T20:49:39.041Z,996.1
2022-09-23T20:51:22.760Z,996
2022-09-23T20:53:06.444Z,996.9
2022-09-23T20:54:50.190Z,995.5
2022-09-23T20:56:33.838Z,996.1
2022-09-23T20:58:17.559Z,997.1
2022-09-23T21:00:01.245Z,996.7
2022-09-23T21:01:44.932Z,996.2
2022-09-23T21:03:28.639Z,991.9
2022-09-23T21:05:12.347Z,987.4
2022-09-23T21:06:56.054Z,995.9
2022-09-23T21:08:39.793Z,999.4
2022-09-23T21:10:23.496Z,1000.2
2022-09-23T21:12:07.153Z,998.6
2022-09-23T21:13:50.896Z,997.1
2022-09-23T21:15:34.549Z,998.3
2022-09-23T21:17:18.321Z,995.6
2022-09-23T21:19:01.971Z,996.5
2022-09-23T21:20:45.663Z,995.2
2022-09-23T21:22:29.363Z,994.4
2022-09-23T21:24:13.072Z,1002.3
2022-09-23T21:25:56.772Z,1018.6
2022-09-23T21:27:40.474Z,1028.3
2022-09-23T21:29:24.172Z,1035.1
2022-09-23T21:31:07.878Z,1032.1
2022-09-23T21:32:51.604Z,1014.9
2022-09-23T21:34:35.345Z,1007.9
2022-09-23T21:36:18.976Z,1004.3
2022-09-23T21:38:02.693Z,996.9
2022-09-23T21:39:46.403Z,996.2
2022-09-23T21:41:30.099Z,995.1
2022-09-23T21:43:13.811Z,992.5
2022-09-23T21:44:57.504Z,991.4
2022-09-23T21:46:41.202Z,990.1
2022-09-23T21:48:24.883Z,991.3
2022-09-23T21:50:08.591Z,986.8
2022-09-23T21:51:52.303Z,987
2022-09-23T21:53:35.992Z,984.5
2022-09-23T21:55:19.701Z,988.9
2022-09-23T21:57:03.407Z,989.3
2022-09-23T21:58:47.102Z,993.5